PST,Max TemperatureF,Mean TemperatureF,Min TemperatureF,Max Dew PointF,MeanDew PointF,Min DewpointF,Max Humidity, Mean Humidity, Min Humidity, Max Sea Level PressureIn, Mean Sea Level PressureIn, Min Sea Level PressureIn, Max VisibilityMiles, Mean VisibilityMiles, Min VisibilityMiles, Max Wind SpeedMPH, Mean Wind SpeedMPH, Max Gust SpeedMPH,PrecipitationIn, CloudCover, Events, WindDirDegrees
2012-11-1,67,61,54,56,54,52,86,77,67,30.04,30.00,29.98,10,10,10,14,4,16,T,2,,315
2012-11-2,69,57,44,54,50,44,100,76,51,30.08,30.04,30.01,10,10,10,9,3,15,0.00,3,,27
2012-11-3,73,59,44,52,48,43,100,72,44,30.16,30.11,30.07,10,10,10,9,2,10,0.01,2,,302
2012-11-4,77,62,46,53,49,44,93,67,41,30.23,30.18,30.13,10,10,10,7,2,12,0.00,0,,116
2012-11-5,80,64,48,57,50,45,93,66,39,30.20,30.12,30.06,10,10,10,7,2,10,0.00,0,,118
2012-11-6,82,65,48,56,50,45,89,61,33,30.11,30.05,29.99,10,10,10,7,2,9,0.00,0,,354
2012-11-7,81,64,47,52,47,44,93,63,33,30.04,29.96,29.89,10,10,6,7,2,10,0.00,0,,314
2012-11-8,63,56,49,48,43,35,89,63,36,29.99,29.92,29.86,10,10,6,21,10,25,0.00,4,Rain,344
2012-11-9,55,46,37,45,40,37,100,77,54,30.01,29.95,29.92,10,8,1,14,3,22,0.09,4,Rain,22
2012-11-10,57,45,33,40,35,28,89,61,33,30.25,30.11,30.01,10,10,10,13,4,,0.00,3,,336
2012-11-11,59,44,29,36,32,28,92,63,33,30.40,30.35,30.26,10,10,8,8,2,12,0.00,0,,356
2012-11-12,62,47,32,37,33,30,92,61,30,30.40,30.34,30.26,10,9,6,9,2,12,0.00,0,,285
2012-11-13,65,49,33,38,35,30,96,64,31,30.30,30.20,30.12,10,9,7,7,2,9,0.00,0,,29
2012-11-14,70,54,37,41,37,34,92,60,28,30.17,30.10,30.05,10,8,6,7,1,10,0.00,0,,238
2012-11-15,67,52,36,43,39,33,85,61,37,30.06,30.02,29.98,8,6,4,9,2,,0.00,1,,110
2012-11-16,65,59,52,53,49,42,86,67,48,30.06,30.00,29.96,10,8,5,13,5,,0.12,8,Rain,109
2012-11-17,70,62,54,58,54,49,90,72,53,30.06,29.97,29.91,10,8,1,18,10,24,0.48,7,Rain-Thunderstorm,75
2012-11-18,66,59,52,55,52,50,93,78,63,30.17,30.11,30.04,10,10,7,14,6,16,0.02,7,Rain,129
2012-11-19,66,56,45,54,48,45,96,74,52,30.27,30.22,30.17,10,7,3,10,2,13,0.00,1,,185
2012-11-20,70,56,42,48,45,41,100,69,37,30.22,30.15,30.08,10,9,5,8,2,10,0.00,0,,101
2012-11-21,69,58,46,53,48,44,93,69,45,30.17,30.13,30.09,10,9,5,14,6,17,0.00,4,,13
2012-11-22,58,49,40,49,44,39,100,86,72,30.26,30.21,30.17,10,3,0,9,3,12,0.00,3,Fog,327
2012-11-23,65,53,40,52,45,39,100,82,63,30.30,30.24,30.18,6,2,0,6,1,17,0.00,2,Fog,335
2012-11-24,65,54,42,52,47,42,100,80,60,30.21,30.11,30.04,9,2,0,8,2,,0.02,2,Fog,280
2012-11-25,65,52,39,52,45,39,100,78,56,30.04,30.00,29.93,8,2,0,6,1,12,0.00,1,Fog,124
2012-11-26,68,53,38,49,42,37,100,76,52,30.08,30.03,29.99,5,2,0,6,2,28,0.01,0,Fog,89
2012-11-27,63,50,37,50,43,36,100,80,60,30.15,30.07,30.03,6,2,0,8,2,10,0.00,0,Fog,124
2012-11-28,61,55,48,52,48,44,89,77,64,30.09,30.02,29.95,10,6,2,23,11,29,0.14,4,Rain,120
2012-11-29,67,60,52,55,53,51,100,79,58,30.14,30.08,30.02,10,10,8,15,10,23,T,3,,139
2012-11-30,63,60,56,58,55,53,93,86,78,30.09,30.00,29.95,10,6,1,17,11,22,1.15,7,Rain,102